Nearby METAR Reports

 Weather conditions at key Metar weather stations is recorded hourly. Metar weather stations are the stations set up at regional or major airports and often considered the official stations of record for a local area.

KSEA - Seattle/Tacoma Airport
Updated: 04/25/2017 6:53am
Light rain, Mostly cloudy
Light rain, Mostly cloudy
 Wind from S
Wind: S 7 mph , 11 km/h
Temperature: 46°F , 8°C
Wind Chill: 42°F , 6°C
Dew Point: 43°F , 6°C
Humidity: 87%
Barometer: 29.97 inHg , 1014.9 hPa
Summary: Light rain
Clouds: Mostly cloudy
Visibility: 10 miles , 16 km
Cloud details: Few Clouds 3000 ft
Mostly cloudy 4000 ft
Mostly cloudy 6000 ft
2017/04/25 13:53 KSEA 251353Z 19006KT 10SM -RA FEW030 BKN040 BKN060 08/06 A2997 RMK AO2 RAB48 SLP157 P0000 T00830061
KTIW - Tacoma Narrows Bridge
Updated: 04/25/2017 7:28am
Overcast
Overcast
 Wind from S
Wind: S 10 mph , 17 km/h
Temperature: 46°F , 8°C
Wind Chill: 41°F , 5°C
Dew Point: 43°F , 6°C
Humidity: 87%
Barometer: 30.00 inHg , 1015.9 hPa
Clouds: Overcast
Visibility: 10 miles , 16 km
Cloud details: Mostly cloudy 2900 ft
Overcast 5000 ft
2017/04/25 14:28 KTIW 251428Z AUTO 18009KT 10SM BKN029 OVC050 08/06 A3000 RMK AO2 T00830061
 
KBLI - Bellingham
Updated: 04/25/2017 6:53am
Overcast
Overcast
 Wind from S
Wind: S 12 mph , 19 km/h
Temperature: 50°F , 10°C
Wind Chill: 45°F , 7°C
Dew Point: 45°F , 7°C
Humidity: 82%
Barometer: 29.93 inHg , 1013.5 hPa
Clouds: Overcast
Visibility: 10 miles , 16 km
Cloud details: Mostly cloudy 2600 ft
Overcast 6000 ft
2017/04/25 13:53 KBLI 251353Z 17010KT 10SM BKN026 OVC060 10/07 A2993 RMK AO2 SLP142 T01000072
KUIL - Quillayute-La Push
Updated: 04/25/2017 7:18am
Light rain, Mist, Overcast
Light rain, Mist, Overcast
 Wind from SSE
Wind: SSE 8 mph , 13 km/h
Temperature: 46°F , 8°C
Wind Chill: 42°F , 6°C
Dew Point: 45°F , 7°C
Humidity: 93%
Barometer: 29.93 inHg , 1013.5 hPa
Summary: Light rain, Mist
Clouds: Overcast
Visibility: 3 miles , 5 km
Cloud details: Few Clouds 900 ft
Mostly cloudy 2900 ft
Overcast 3500 ft
2017/04/25 14:18 KUIL 251418Z AUTO 15007KT 3SM -RA BR FEW009 BKN029 OVC035 08/07 A2993 RMK AO2 RAB1356 P0001 T00780072
 
KYKM - Yakima
Updated: 04/25/2017 6:53am
Clear
Clear
 Wind from calm
Wind: Calm
Temperature: 45°F , 7°C
Dew Point: 36°F , 2°C
Humidity: 71%
Barometer: 29.90 inHg , 1012.5 hPa
Clouds: Clear
Visibility: 10 miles , 16 km
2017/04/25 13:53 KYKM 251353Z 00000KT 10SM CLR 07/02 A2990 RMK AO2 SLP127 T00720017
KGEG - Spokane
Updated: 04/25/2017 7:22am
Mist, Overcast
Mist, Overcast
 Wind from SSW
Wind: SSW 13 mph , 20 km/h
Temperature: 43°F , 6°C
Wind Chill: 36°F , 2°C
Dew Point: 39°F , 4°C
Humidity: 87%
Barometer: 29.86 inHg , 1011.2 hPa
Summary: Mist
Clouds: Overcast
Visibility: 1/2 mile , 2 km
Cloud details: Mostly cloudy 300 ft
Overcast 600 ft
2017/04/25 14:22 KGEG 251422Z 21011KT 1/2SM R21/P6000FT BR BKN003 OVC006 06/04 A2986 RMK AO2 SFC VIS 4 VIS S 2 T00560044
 
KPDX - Portland
Updated: 04/25/2017 6:53am
Mostly cloudy
Mostly cloudy
 Wind from SSE
Wind: SSE 5 mph , 7 km/h
Temperature: 46°F , 8°C
Wind Chill: 44°F , 7°C
Dew Point: 45°F , 7°C
Humidity: 93%
Barometer: 30.03 inHg , 1016.9 hPa
Clouds: Mostly cloudy
Visibility: 10 miles , 16 km
Cloud details: Few Clouds 1500 ft
Mostly cloudy 5000 ft
2017/04/25 13:53 KPDX 251353Z 16004KT 10SM FEW015 BKN050 08/07 A3003 RMK AO2 SLP168 T00830067